aviador You're here:

KAXS Decoded Metar

ALTUS/QUARTZ MTN in OK, USA
Report Time2018-06-18 18:55:00
UTC Time2018-06-18 19:09:08
Flight Rules vfr VFR
Wind140° at 10 Gusting to 17 kt
W.Decomp.*RWY 17: 7.9 kt HW 6.2 kt LCW
W.Rank140° ranks 1
Current wind is above 140° avg. (9.3)
Visibility9999 m
Phenomena:N/A
Clouds:Scattered 044 Hf
Expected CloudBase > 5,200 ft AGL from Temp-Dew spread
CeilingNone
Temp33°C (ISA +21)
Dew Point20°C (46% RH)
Heat Index35.2°C
QNH1015 hPa
Density Alt4,049 ft
Elevation1,434 ft
Report Wrong Elevation
Raw Report
KAXS 181855Z AUTO 14010G17KT 10SM SCT044 33/20 A2998 RMK AO2
T03340199=

Extra information for KAXS:More info

Metar Taf Metar & Taf Last 4 Metars F.Rules Stats Wind Profile Meteogram Temp Stats Airport Information Weather charts Add Link Nearby VenuesMetar ALERT Operation Metar Decoded Social comments

AIRNAV info for KAXS